sensor_id;sensor_type;location;lat;lon;timestamp;P1;durP1;ratioP1;P2;durP2;ratioP2
60831;SDS011;46665;51.558;-0.448;2023-04-22T00:01:46;19.83;;;9.40;;
60831;SDS011;46665;51.558;-0.448;2023-04-22T00:04:12;20.20;;;9.57;;
60831;SDS011;46665;51.558;-0.448;2023-04-22T00:06:38;16.30;;;9.48;;
60831;SDS011;46665;51.558;-0.448;2023-04-22T00:09:04;14.18;;;8.25;;
60831;SDS011;46665;51.558;-0.448;2023-04-22T00:11:30;19.67;;;10.07;;
60831;SDS011;46665;51.558;-0.448;2023-04-22T00:13:55;15.00;;;8.68;;
60831;SDS011;46665;51.558;-0.448;2023-04-22T00:16:20;21.00;;;10.02;;
60831;SDS011;46665;51.558;-0.448;2023-04-22T00:18:46;17.42;;;8.88;;
60831;SDS011;46665;51.558;-0.448;2023-04-22T00:21:11;20.23;;;9.60;;
60831;SDS011;46665;51.558;-0.448;2023-04-22T00:23:37;18.17;;;9.45;;
60831;SDS011;46665;51.558;-0.448;2023-04-22T00:26:02;24.48;;;10.15;;
60831;SDS011;46665;51.558;-0.448;2023-04-22T00:28:27;13.98;;;8.68;;
60831;SDS011;46665;51.558;-0.448;2023-04-22T00:30:53;16.13;;;8.23;;
60831;SDS011;46665;51.558;-0.448;2023-04-22T00:33:18;14.80;;;7.65;;
60831;SDS011;46665;51.558;-0.448;2023-04-22T00:35:47;19.83;;;8.43;;
60831;SDS011;46665;51.558;-0.448;2023-04-22T00:38:12;13.57;;;7.38;;
60831;SDS011;46665;51.558;-0.448;2023-04-22T00:40:38;19.80;;;9.23;;
60831;SDS011;46665;51.558;-0.448;2023-04-22T00:43:03;13.20;;;7.40;;
60831;SDS011;46665;51.558;-0.448;2023-04-22T00:45:29;19.45;;;7.93;;
60831;SDS011;46665;51.558;-0.448;2023-04-22T00:47:58;18.10;;;8.88;;
60831;SDS011;46665;51.558;-0.448;2023-04-22T00:50:24;11.07;;;7.10;;
60831;SDS011;46665;51.558;-0.448;2023-04-22T00:52:49;18.25;;;7.90;;
60831;SDS011;46665;51.558;-0.448;2023-04-22T00:55:15;12.38;;;7.28;;
60831;SDS011;46665;51.558;-0.448;2023-04-22T00:57:40;21.10;;;7.95;;
60831;SDS011;46665;51.558;-0.448;2023-04-22T01:00:07;18.92;;;9.00;;
60831;SDS011;46665;51.558;-0.448;2023-04-22T01:02:34;20.35;;;7.80;;
60831;SDS011;46665;51.558;-0.448;2023-04-22T01:05:01;16.92;;;8.60;;
60831;SDS011;46665;51.558;-0.448;2023-04-22T01:07:28;18.80;;;8.73;;
60831;SDS011;46665;51.558;-0.448;2023-04-22T01:09:53;20.00;;;8.43;;
60831;SDS011;46665;51.558;-0.448;2023-04-22T01:12:18;21.23;;;8.45;;
60831;SDS011;46665;51.558;-0.448;2023-04-22T01:14:44;20.60;;;9.48;;
60831;SDS011;46665;51.558;-0.448;2023-04-22T01:17:09;17.15;;;7.13;;
60831;SDS011;46665;51.558;-0.448;2023-04-22T01:19:36;24.35;;;9.18;;
60831;SDS011;46665;51.558;-0.448;2023-04-22T01:22:02;12.68;;;7.85;;
60831;SDS011;46665;51.558;-0.448;2023-04-22T01:24:27;12.60;;;7.50;;
60831;SDS011;46665;51.558;-0.448;2023-04-22T01:26:53;17.00;;;8.68;;
60831;SDS011;46665;51.558;-0.448;2023-04-22T01:29:19;17.17;;;7.25;;
60831;SDS011;46665;51.558;-0.448;2023-04-22T01:31:45;11.52;;;7.32;;
60831;SDS011;46665;51.558;-0.448;2023-04-22T01:34:10;23.98;;;8.20;;
60831;SDS011;46665;51.558;-0.448;2023-04-22T01:36:36;14.77;;;8.88;;
60831;SDS011;46665;51.558;-0.448;2023-04-22T01:39:02;17.63;;;7.78;;
60831;SDS011;46665;51.558;-0.448;2023-04-22T01:41:29;12.68;;;6.90;;
60831;SDS011;46665;51.558;-0.448;2023-04-22T01:43:54;18.35;;;8.90;;
60831;SDS011;46665;51.558;-0.448;2023-04-22T01:46:22;13.77;;;8.75;;
60831;SDS011;46665;51.558;-0.448;2023-04-22T01:48:47;13.02;;;7.65;;
60831;SDS011;46665;51.558;-0.448;2023-04-22T01:51:18;26.38;;;8.98;;
60831;SDS011;46665;51.558;-0.448;2023-04-22T01:53:50;20.73;;;8.85;;
60831;SDS011;46665;51.558;-0.448;2023-04-22T01:56:16;16.15;;;8.25;;
60831;SDS011;46665;51.558;-0.448;2023-04-22T01:58:41;13.07;;;7.10;;
60831;SDS011;46665;51.558;-0.448;2023-04-22T02:01:10;12.32;;;7.65;;
60831;SDS011;46665;51.558;-0.448;2023-04-22T02:03:36;15.00;;;7.00;;
60831;SDS011;46665;51.558;-0.448;2023-04-22T02:06:02;18.20;;;8.13;;
60831;SDS011;46665;51.558;-0.448;2023-04-22T02:08:28;16.77;;;8.00;;
60831;SDS011;46665;51.558;-0.448;2023-04-22T02:10:53;17.55;;;7.38;;
60831;SDS011;46665;51.558;-0.448;2023-04-22T02:13:19;12.95;;;6.88;;
60831;SDS011;46665;51.558;-0.448;2023-04-22T02:15:44;22.65;;;9.00;;
60831;SDS011;46665;51.558;-0.448;2023-04-22T02:18:10;16.95;;;9.30;;
60831;SDS011;46665;51.558;-0.448;2023-04-22T02:20:35;14.50;;;8.15;;
60831;SDS011;46665;51.558;-0.448;2023-04-22T02:23:01;21.55;;;9.32;;
60831;SDS011;46665;51.558;-0.448;2023-04-22T02:25:27;16.52;;;7.72;;
60831;SDS011;46665;51.558;-0.448;2023-04-22T02:27:53;16.23;;;7.63;;
60831;SDS011;46665;51.558;-0.448;2023-04-22T02:30:20;19.92;;;6.50;;
60831;SDS011;46665;51.558;-0.448;2023-04-22T02:32:46;18.33;;;8.30;;
60831;SDS011;46665;51.558;-0.448;2023-04-22T02:35:11;17.40;;;7.88;;
60831;SDS011;46665;51.558;-0.448;2023-04-22T02:37:37;11.20;;;6.90;;
60831;SDS011;46665;51.558;-0.448;2023-04-22T02:40:03;14.23;;;7.72;;
60831;SDS011;46665;51.558;-0.448;2023-04-22T02:42:28;14.15;;;8.00;;
60831;SDS011;46665;51.558;-0.448;2023-04-22T02:44:54;20.17;;;7.43;;
60831;SDS011;46665;51.558;-0.448;2023-04-22T02:47:20;15.80;;;7.47;;
60831;SDS011;46665;51.558;-0.448;2023-04-22T02:49:46;17.48;;;7.75;;
60831;SDS011;46665;51.558;-0.448;2023-04-22T02:52:11;12.85;;;6.57;;
60831;SDS011;46665;51.558;-0.448;2023-04-22T02:54:36;13.20;;;6.28;;
60831;SDS011;46665;51.558;-0.448;2023-04-22T02:57:02;13.27;;;7.50;;
60831;SDS011;46665;51.558;-0.448;2023-04-22T02:59:27;15.93;;;7.57;;
60831;SDS011;46665;51.558;-0.448;2023-04-22T03:01:53;16.02;;;7.03;;
60831;SDS011;46665;51.558;-0.448;2023-04-22T03:04:18;16.55;;;7.55;;
60831;SDS011;46665;51.558;-0.448;2023-04-22T03:06:45;9.70;;;7.03;;
60831;SDS011;46665;51.558;-0.448;2023-04-22T03:09:12;17.17;;;8.48;;
60831;SDS011;46665;51.558;-0.448;2023-04-22T03:11:38;15.45;;;8.45;;
60831;SDS011;46665;51.558;-0.448;2023-04-22T03:14:03;15.55;;;7.47;;
60831;SDS011;46665;51.558;-0.448;2023-04-22T03:16:29;19.33;;;8.30;;
60831;SDS011;46665;51.558;-0.448;2023-04-22T03:18:54;18.67;;;7.47;;
60831;SDS011;46665;51.558;-0.448;2023-04-22T03:21:20;15.77;;;7.18;;
60831;SDS011;46665;51.558;-0.448;2023-04-22T03:23:45;16.58;;;7.57;;
60831;SDS011;46665;51.558;-0.448;2023-04-22T03:26:10;14.02;;;8.25;;
60831;SDS011;46665;51.558;-0.448;2023-04-22T03:28:37;14.20;;;6.85;;
60831;SDS011;46665;51.558;-0.448;2023-04-22T03:31:03;12.63;;;7.03;;
60831;SDS011;46665;51.558;-0.448;2023-04-22T03:33:28;18.27;;;8.93;;
60831;SDS011;46665;51.558;-0.448;2023-04-22T03:35:53;16.15;;;8.90;;
60831;SDS011;46665;51.558;-0.448;2023-04-22T03:38:19;18.63;;;7.20;;
60831;SDS011;46665;51.558;-0.448;2023-04-22T03:40:44;14.60;;;7.45;;
60831;SDS011;46665;51.558;-0.448;2023-04-22T03:43:09;13.02;;;7.28;;
60831;SDS011;46665;51.558;-0.448;2023-04-22T03:45:35;11.70;;;6.13;;
60831;SDS011;46665;51.558;-0.448;2023-04-22T03:48:01;15.35;;;7.97;;
60831;SDS011;46665;51.558;-0.448;2023-04-22T03:50:26;12.77;;;7.18;;
60831;SDS011;46665;51.558;-0.448;2023-04-22T03:52:51;14.95;;;7.25;;
60831;SDS011;46665;51.558;-0.448;2023-04-22T03:55:17;13.10;;;7.13;;
60831;SDS011;46665;51.558;-0.448;2023-04-22T03:57:42;15.15;;;6.78;;
60831;SDS011;46665;51.558;-0.448;2023-04-22T04:00:08;11.55;;;6.25;;
60831;SDS011;46665;51.558;-0.448;2023-04-22T04:02:33;20.88;;;7.63;;
60831;SDS011;46665;51.558;-0.448;2023-04-22T04:04:59;16.33;;;7.80;;
60831;SDS011;46665;51.558;-0.448;2023-04-22T04:07:25;11.40;;;6.75;;
60831;SDS011;46665;51.558;-0.448;2023-04-22T04:09:51;16.02;;;8.52;;
60831;SDS011;46665;51.558;-0.448;2023-04-22T04:12:16;12.93;;;6.63;;
60831;SDS011;46665;51.558;-0.448;2023-04-22T04:14:42;11.88;;;7.50;;
60831;SDS011;46665;51.558;-0.448;2023-04-22T04:17:07;15.82;;;6.85;;
60831;SDS011;46665;51.558;-0.448;2023-04-22T04:19:38;19.55;;;7.43;;
60831;SDS011;46665;51.558;-0.448;2023-04-22T04:22:03;9.10;;;6.10;;
60831;SDS011;46665;51.558;-0.448;2023-04-22T04:24:29;16.08;;;7.28;;
60831;SDS011;46665;51.558;-0.448;2023-04-22T04:26:54;13.95;;;7.00;;
60831;SDS011;46665;51.558;-0.448;2023-04-22T04:29:22;10.00;;;6.30;;
60831;SDS011;46665;51.558;-0.448;2023-04-22T04:31:47;9.68;;;6.22;;
60831;SDS011;46665;51.558;-0.448;2023-04-22T04:34:13;7.47;;;5.28;;
60831;SDS011;46665;51.558;-0.448;2023-04-22T04:36:39;9.43;;;5.88;;
60831;SDS011;46665;51.558;-0.448;2023-04-22T04:39:04;8.57;;;4.95;;
60831;SDS011;46665;51.558;-0.448;2023-04-22T04:41:30;12.00;;;6.10;;
60831;SDS011;46665;51.558;-0.448;2023-04-22T04:43:57;10.90;;;7.05;;
60831;SDS011;46665;51.558;-0.448;2023-04-22T04:46:24;14.90;;;7.07;;
60831;SDS011;46665;51.558;-0.448;2023-04-22T04:48:50;12.40;;;5.28;;
60831;SDS011;46665;51.558;-0.448;2023-04-22T04:51:18;10.75;;;5.60;;
60831;SDS011;46665;51.558;-0.448;2023-04-22T04:53:43;12.38;;;7.63;;
60831;SDS011;46665;51.558;-0.448;2023-04-22T04:56:09;11.07;;;5.38;;
60831;SDS011;46665;51.558;-0.448;2023-04-22T04:58:34;15.73;;;7.10;;
60831;SDS011;46665;51.558;-0.448;2023-04-22T05:01:00;11.32;;;7.07;;
60831;SDS011;46665;51.558;-0.448;2023-04-22T05:03:25;13.70;;;6.63;;
60831;SDS011;46665;51.558;-0.448;2023-04-22T05:05:51;12.98;;;6.97;;
60831;SDS011;46665;51.558;-0.448;2023-04-22T05:08:16;12.57;;;5.93;;
60831;SDS011;46665;51.558;-0.448;2023-04-22T05:10:42;13.27;;;5.38;;
60831;SDS011;46665;51.558;-0.448;2023-04-22T05:13:08;11.23;;;6.00;;
60831;SDS011;46665;51.558;-0.448;2023-04-22T05:15:34;9.15;;;5.22;;
60831;SDS011;46665;51.558;-0.448;2023-04-22T05:17:59;21.25;;;7.65;;
60831;SDS011;46665;51.558;-0.448;2023-04-22T05:20:26;8.77;;;6.65;;
60831;SDS011;46665;51.558;-0.448;2023-04-22T05:22:51;14.25;;;8.15;;
60831;SDS011;46665;51.558;-0.448;2023-04-22T05:25:17;13.13;;;6.30;;
60831;SDS011;46665;51.558;-0.448;2023-04-22T05:27:42;9.98;;;6.72;;
60831;SDS011;46665;51.558;-0.448;2023-04-22T05:30:08;13.70;;;7.05;;
60831;SDS011;46665;51.558;-0.448;2023-04-22T05:32:33;11.23;;;7.97;;
60831;SDS011;46665;51.558;-0.448;2023-04-22T05:34:59;9.60;;;4.53;;
60831;SDS011;46665;51.558;-0.448;2023-04-22T05:37:24;10.52;;;6.63;;
60831;SDS011;46665;51.558;-0.448;2023-04-22T05:39:50;9.48;;;6.05;;
60831;SDS011;46665;51.558;-0.448;2023-04-22T05:42:15;8.38;;;5.75;;
60831;SDS011;46665;51.558;-0.448;2023-04-22T05:44:40;15.10;;;7.03;;
60831;SDS011;46665;51.558;-0.448;2023-04-22T05:47:06;11.63;;;7.03;;
60831;SDS011;46665;51.558;-0.448;2023-04-22T05:49:31;17.20;;;7.20;;
60831;SDS011;46665;51.558;-0.448;2023-04-22T05:51:57;9.18;;;5.82;;
60831;SDS011;46665;51.558;-0.448;2023-04-22T05:54:22;11.95;;;6.38;;
60831;SDS011;46665;51.558;-0.448;2023-04-22T05:56:47;13.18;;;6.85;;
60831;SDS011;46665;51.558;-0.448;2023-04-22T05:59:13;8.23;;;6.28;;
60831;SDS011;46665;51.558;-0.448;2023-04-22T06:01:38;11.27;;;5.82;;
60831;SDS011;46665;51.558;-0.448;2023-04-22T06:04:04;12.88;;;6.53;;
60831;SDS011;46665;51.558;-0.448;2023-04-22T06:06:30;11.15;;;6.82;;
60831;SDS011;46665;51.558;-0.448;2023-04-22T06:08:56;12.57;;;6.68;;
60831;SDS011;46665;51.558;-0.448;2023-04-22T06:11:21;13.43;;;7.07;;
60831;SDS011;46665;51.558;-0.448;2023-04-22T06:13:47;11.52;;;5.70;;
60831;SDS011;46665;51.558;-0.448;2023-04-22T06:16:12;11.40;;;6.72;;
60831;SDS011;46665;51.558;-0.448;2023-04-22T06:18:37;21.45;;;7.68;;
60831;SDS011;46665;51.558;-0.448;2023-04-22T06:21:03;8.75;;;5.88;;
60831;SDS011;46665;51.558;-0.448;2023-04-22T06:23:28;17.88;;;7.20;;
60831;SDS011;46665;51.558;-0.448;2023-04-22T06:25:54;10.77;;;6.57;;
60831;SDS011;46665;51.558;-0.448;2023-04-22T06:28:19;10.25;;;6.72;;
60831;SDS011;46665;51.558;-0.448;2023-04-22T06:30:45;16.33;;;7.13;;
60831;SDS011;46665;51.558;-0.448;2023-04-22T06:33:10;21.10;;;9.18;;
60831;SDS011;46665;51.558;-0.448;2023-04-22T06:35:36;19.58;;;8.57;;
60831;SDS011;46665;51.558;-0.448;2023-04-22T06:38:01;17.38;;;8.93;;
60831;SDS011;46665;51.558;-0.448;2023-04-22T06:40:27;15.48;;;8.65;;
60831;SDS011;46665;51.558;-0.448;2023-04-22T06:42:52;20.42;;;9.32;;
60831;SDS011;46665;51.558;-0.448;2023-04-22T06:45:18;14.82;;;8.70;;
60831;SDS011;46665;51.558;-0.448;2023-04-22T06:47:44;20.48;;;9.07;;
60831;SDS011;46665;51.558;-0.448;2023-04-22T06:50:09;19.85;;;9.70;;
60831;SDS011;46665;51.558;-0.448;2023-04-22T06:52:35;13.55;;;7.95;;
60831;SDS011;46665;51.558;-0.448;2023-04-22T06:55:01;14.85;;;9.50;;
60831;SDS011;46665;51.558;-0.448;2023-04-22T06:57:27;18.88;;;8.68;;
60831;SDS011;46665;51.558;-0.448;2023-04-22T06:59:53;20.20;;;9.88;;
60831;SDS011;46665;51.558;-0.448;2023-04-22T07:02:20;19.25;;;8.88;;
60831;SDS011;46665;51.558;-0.448;2023-04-22T07:04:45;22.50;;;9.20;;
60831;SDS011;46665;51.558;-0.448;2023-04-22T07:07:11;18.25;;;8.27;;
60831;SDS011;46665;51.558;-0.448;2023-04-22T07:09:36;32.88;;;9.85;;
60831;SDS011;46665;51.558;-0.448;2023-04-22T07:12:02;19.77;;;10.90;;
60831;SDS011;46665;51.558;-0.448;2023-04-22T07:14:28;19.70;;;11.10;;
60831;SDS011;46665;51.558;-0.448;2023-04-22T07:16:53;18.60;;;9.07;;
60831;SDS011;46665;51.558;-0.448;2023-04-22T07:19:19;17.77;;;8.77;;
60831;SDS011;46665;51.558;-0.448;2023-04-22T07:21:45;22.75;;;10.63;;
60831;SDS011;46665;51.558;-0.448;2023-04-22T07:24:10;30.70;;;12.70;;
60831;SDS011;46665;51.558;-0.448;2023-04-22T07:26:37;25.00;;;10.98;;
60831;SDS011;46665;51.558;-0.448;2023-04-22T07:29:04;28.25;;;10.90;;
60831;SDS011;46665;51.558;-0.448;2023-04-22T07:31:32;19.98;;;10.93;;
60831;SDS011;46665;51.558;-0.448;2023-04-22T07:33:59;21.25;;;10.93;;
60831;SDS011;46665;51.558;-0.448;2023-04-22T07:36:25;24.65;;;12.23;;
60831;SDS011;46665;51.558;-0.448;2023-04-22T07:38:50;21.88;;;11.80;;
60831;SDS011;46665;51.558;-0.448;2023-04-22T07:41:15;25.25;;;12.63;;
60831;SDS011;46665;51.558;-0.448;2023-04-22T07:43:41;34.45;;;13.50;;
60831;SDS011;46665;51.558;-0.448;2023-04-22T07:46:06;29.45;;;14.15;;
60831;SDS011;46665;51.558;-0.448;2023-04-22T07:48:32;35.08;;;15.10;;
60831;SDS011;46665;51.558;-0.448;2023-04-22T07:50:57;42.78;;;13.57;;
60831;SDS011;46665;51.558;-0.448;2023-04-22T07:53:22;35.88;;;13.60;;
60831;SDS011;46665;51.558;-0.448;2023-04-22T07:55:48;32.42;;;13.90;;
60831;SDS011;46665;51.558;-0.448;2023-04-22T07:58:14;29.90;;;15.45;;
60831;SDS011;46665;51.558;-0.448;2023-04-22T08:00:40;29.60;;;13.05;;
60831;SDS011;46665;51.558;-0.448;2023-04-22T08:03:05;34.25;;;13.20;;
60831;SDS011;46665;51.558;-0.448;2023-04-22T08:05:31;26.88;;;11.85;;
60831;SDS011;46665;51.558;-0.448;2023-04-22T08:07:56;32.60;;;13.75;;
60831;SDS011;46665;51.558;-0.448;2023-04-22T08:10:22;27.05;;;13.65;;
60831;SDS011;46665;51.558;-0.448;2023-04-22T08:12:47;28.92;;;14.30;;
60831;SDS011;46665;51.558;-0.448;2023-04-22T08:15:13;25.25;;;12.80;;
60831;SDS011;46665;51.558;-0.448;2023-04-22T08:17:38;39.20;;;16.20;;
60831;SDS011;46665;51.558;-0.448;2023-04-22T08:20:04;33.40;;;15.43;;
60831;SDS011;46665;51.558;-0.448;2023-04-22T08:22:30;33.95;;;14.60;;
60831;SDS011;46665;51.558;-0.448;2023-04-22T08:24:57;29.75;;;15.18;;
60831;SDS011;46665;51.558;-0.448;2023-04-22T08:27:23;38.50;;;16.73;;
60831;SDS011;46665;51.558;-0.448;2023-04-22T08:29:49;41.53;;;16.38;;
60831;SDS011;46665;51.558;-0.448;2023-04-22T08:32:14;47.10;;;17.42;;
60831;SDS011;46665;51.558;-0.448;2023-04-22T08:34:41;40.15;;;16.20;;
60831;SDS011;46665;51.558;-0.448;2023-04-22T08:37:07;41.67;;;15.93;;
60831;SDS011;46665;51.558;-0.448;2023-04-22T08:39:33;45.58;;;18.20;;
60831;SDS011;46665;51.558;-0.448;2023-04-22T08:41:58;33.78;;;16.13;;
60831;SDS011;46665;51.558;-0.448;2023-04-22T08:44:23;40.42;;;18.10;;
60831;SDS011;46665;51.558;-0.448;2023-04-22T08:46:50;37.53;;;16.55;;
60831;SDS011;46665;51.558;-0.448;2023-04-22T08:49:16;46.85;;;19.20;;
60831;SDS011;46665;51.558;-0.448;2023-04-22T08:51:43;40.92;;;16.55;;
60831;SDS011;46665;51.558;-0.448;2023-04-22T08:54:09;40.20;;;19.23;;
60831;SDS011;46665;51.558;-0.448;2023-04-22T08:56:35;40.97;;;18.40;;
60831;SDS011;46665;51.558;-0.448;2023-04-22T08:59:04;43.05;;;18.83;;
60831;SDS011;46665;51.558;-0.448;2023-04-22T09:01:30;43.17;;;19.20;;
60831;SDS011;46665;51.558;-0.448;2023-04-22T09:03:57;37.15;;;19.75;;
60831;SDS011;46665;51.558;-0.448;2023-04-22T09:06:24;38.03;;;18.05;;
60831;SDS011;46665;51.558;-0.448;2023-04-22T09:08:49;34.97;;;18.70;;
60831;SDS011;46665;51.558;-0.448;2023-04-22T09:11:15;34.40;;;16.92;;
60831;SDS011;46665;51.558;-0.448;2023-04-22T09:13:41;39.00;;;17.80;;
60831;SDS011;46665;51.558;-0.448;2023-04-22T09:16:06;48.72;;;19.98;;
60831;SDS011;46665;51.558;-0.448;2023-04-22T09:18:41;37.83;;;18.27;;
60831;SDS011;46665;51.558;-0.448;2023-04-22T09:21:09;37.30;;;17.98;;
60831;SDS011;46665;51.558;-0.448;2023-04-22T09:23:46;39.72;;;18.05;;
60831;SDS011;46665;51.558;-0.448;2023-04-22T09:26:19;40.85;;;17.58;;
60831;SDS011;46665;51.558;-0.448;2023-04-22T09:28:56;31.48;;;15.73;;
60831;SDS011;46665;51.558;-0.448;2023-04-22T09:31:23;47.72;;;19.10;;
60831;SDS011;46665;51.558;-0.448;2023-04-22T09:33:53;36.58;;;17.05;;
60831;SDS011;46665;51.558;-0.448;2023-04-22T09:36:21;36.33;;;16.85;;
60831;SDS011;46665;51.558;-0.448;2023-04-22T09:39:06;32.08;;;16.40;;
60831;SDS011;46665;51.558;-0.448;2023-04-22T09:41:33;43.55;;;16.65;;
60831;SDS011;46665;51.558;-0.448;2023-04-22T09:44:03;32.38;;;16.77;;
60831;SDS011;46665;51.558;-0.448;2023-04-22T09:46:32;45.20;;;16.70;;
60831;SDS011;46665;51.558;-0.448;2023-04-22T09:48:58;28.58;;;15.35;;
60831;SDS011;46665;51.558;-0.448;2023-04-22T09:51:24;44.95;;;16.60;;
60831;SDS011;46665;51.558;-0.448;2023-04-22T09:54:01;33.97;;;15.85;;
60831;SDS011;46665;51.558;-0.448;2023-04-22T09:56:44;46.70;;;15.32;;
60831;SDS011;46665;51.558;-0.448;2023-04-22T09:59:19;29.50;;;14.93;;
60831;SDS011;46665;51.558;-0.448;2023-04-22T10:01:51;31.23;;;15.45;;
60831;SDS011;46665;51.558;-0.448;2023-04-22T10:04:18;32.95;;;15.95;;
60831;SDS011;46665;51.558;-0.448;2023-04-22T10:06:47;36.45;;;16.35;;
60831;SDS011;46665;51.558;-0.448;2023-04-22T10:09:14;34.33;;;15.35;;
60831;SDS011;46665;51.558;-0.448;2023-04-22T10:11:43;30.67;;;14.40;;
60831;SDS011;46665;51.558;-0.448;2023-04-22T10:14:09;37.30;;;15.68;;
60831;SDS011;46665;51.558;-0.448;2023-04-22T10:16:35;37.78;;;15.45;;
60831;SDS011;46665;51.558;-0.448;2023-04-22T10:19:03;29.88;;;13.55;;
60831;SDS011;46665;51.558;-0.448;2023-04-22T10:21:31;22.15;;;11.95;;
60831;SDS011;46665;51.558;-0.448;2023-04-22T10:23:57;30.30;;;13.68;;
60831;SDS011;46665;51.558;-0.448;2023-04-22T10:26:46;30.73;;;12.60;;
60831;SDS011;46665;51.558;-0.448;2023-04-22T10:29:16;29.55;;;13.43;;
60831;SDS011;46665;51.558;-0.448;2023-04-22T10:31:53;24.58;;;11.90;;
60831;SDS011;46665;51.558;-0.448;2023-04-22T10:34:23;20.33;;;10.85;;
60831;SDS011;46665;51.558;-0.448;2023-04-22T10:37:10;20.42;;;11.55;;
60831;SDS011;46665;51.558;-0.448;2023-04-22T10:39:36;22.98;;;12.07;;
60831;SDS011;46665;51.558;-0.448;2023-04-22T10:44:29;20.83;;;10.35;;
60831;SDS011;46665;51.558;-0.448;2023-04-22T10:47:09;22.05;;;11.30;;
60831;SDS011;46665;51.558;-0.448;2023-04-22T10:49:34;15.35;;;10.15;;
60831;SDS011;46665;51.558;-0.448;2023-04-22T10:52:00;20.25;;;9.70;;
60831;SDS011;46665;51.558;-0.448;2023-04-22T10:57:10;16.98;;;9.00;;
60831;SDS011;46665;51.558;-0.448;2023-04-22T10:59:44;18.45;;;9.30;;
60831;SDS011;46665;51.558;-0.448;2023-04-22T11:02:12;19.63;;;8.32;;
60831;SDS011;46665;51.558;-0.448;2023-04-22T11:04:38;20.80;;;9.93;;
60831;SDS011;46665;51.558;-0.448;2023-04-22T11:09:45;17.52;;;9.20;;
60831;SDS011;46665;51.558;-0.448;2023-04-22T11:15:16;11.30;;;5.38;;
60831;SDS011;46665;51.558;-0.448;2023-04-22T11:17:44;8.32;;;5.00;;
60831;SDS011;46665;51.558;-0.448;2023-04-22T11:20:11;10.30;;;6.65;;
60831;SDS011;46665;51.558;-0.448;2023-04-22T11:22:42;11.57;;;7.00;;
60831;SDS011;46665;51.558;-0.448;2023-04-22T11:25:11;15.50;;;6.65;;
60831;SDS011;46665;51.558;-0.448;2023-04-22T11:27:38;10.20;;;5.75;;
60831;SDS011;46665;51.558;-0.448;2023-04-22T11:30:06;11.13;;;6.43;;
60831;SDS011;46665;51.558;-0.448;2023-04-22T11:32:46;12.35;;;6.72;;
60831;SDS011;46665;51.558;-0.448;2023-04-22T11:35:19;9.25;;;6.13;;
60831;SDS011;46665;51.558;-0.448;2023-04-22T11:40:20;10.32;;;6.28;;
60831;SDS011;46665;51.558;-0.448;2023-04-22T11:42:49;15.07;;;6.85;;
60831;SDS011;46665;51.558;-0.448;2023-04-22T11:45:15;12.45;;;7.57;;
60831;SDS011;46665;51.558;-0.448;2023-04-22T11:47:41;13.10;;;6.47;;
60831;SDS011;46665;51.558;-0.448;2023-04-22T11:50:07;15.55;;;7.30;;
60831;SDS011;46665;51.558;-0.448;2023-04-22T11:52:46;14.07;;;7.57;;
60831;SDS011;46665;51.558;-0.448;2023-04-22T11:57:44;16.40;;;7.20;;
60831;SDS011;46665;51.558;-0.448;2023-04-22T12:00:11;15.70;;;8.48;;
60831;SDS011;46665;51.558;-0.448;2023-04-22T12:02:39;13.63;;;7.28;;
60831;SDS011;46665;51.558;-0.448;2023-04-22T12:05:18;13.25;;;8.10;;
60831;SDS011;46665;51.558;-0.448;2023-04-22T12:07:43;15.32;;;7.63;;
60831;SDS011;46665;51.558;-0.448;2023-04-22T12:10:22;18.88;;;7.53;;
60831;SDS011;46665;51.558;-0.448;2023-04-22T12:12:47;12.82;;;7.95;;
60831;SDS011;46665;51.558;-0.448;2023-04-22T12:15:14;13.23;;;8.32;;
60831;SDS011;46665;51.558;-0.448;2023-04-22T12:17:40;11.73;;;7.28;;
60831;SDS011;46665;51.558;-0.448;2023-04-22T12:20:12;17.55;;;8.05;;
60831;SDS011;46665;51.558;-0.448;2023-04-22T12:22:37;12.70;;;7.70;;
60831;SDS011;46665;51.558;-0.448;2023-04-22T12:25:03;15.00;;;7.93;;
60831;SDS011;46665;51.558;-0.448;2023-04-22T12:27:29;13.20;;;7.68;;
60831;SDS011;46665;51.558;-0.448;2023-04-22T12:29:55;14.68;;;7.53;;
60831;SDS011;46665;51.558;-0.448;2023-04-22T12:32:22;16.67;;;8.60;;
60831;SDS011;46665;51.558;-0.448;2023-04-22T12:34:49;12.60;;;8.05;;
60831;SDS011;46665;51.558;-0.448;2023-04-22T12:37:15;15.90;;;8.38;;
60831;SDS011;46665;51.558;-0.448;2023-04-22T12:39:41;12.80;;;8.18;;
60831;SDS011;46665;51.558;-0.448;2023-04-22T12:42:07;11.57;;;6.65;;
60831;SDS011;46665;51.558;-0.448;2023-04-22T12:44:33;10.20;;;6.95;;
60831;SDS011;46665;51.558;-0.448;2023-04-22T12:46:58;11.10;;;6.40;;
60831;SDS011;46665;51.558;-0.448;2023-04-22T12:49:24;12.93;;;5.80;;
60831;SDS011;46665;51.558;-0.448;2023-04-22T12:51:50;9.55;;;6.78;;
60831;SDS011;46665;51.558;-0.448;2023-04-22T12:54:16;17.30;;;7.78;;
60831;SDS011;46665;51.558;-0.448;2023-04-22T12:56:43;12.52;;;6.72;;
60831;SDS011;46665;51.558;-0.448;2023-04-22T12:59:09;12.30;;;7.18;;
60831;SDS011;46665;51.558;-0.448;2023-04-22T13:01:35;10.30;;;6.03;;
60831;SDS011;46665;51.558;-0.448;2023-04-22T13:04:00;7.93;;;5.50;;
60831;SDS011;46665;51.558;-0.448;2023-04-22T13:06:25;14.27;;;6.88;;
60831;SDS011;46665;51.558;-0.448;2023-04-22T13:08:52;9.35;;;5.55;;
60831;SDS011;46665;51.558;-0.448;2023-04-22T13:11:18;6.50;;;4.45;;
60831;SDS011;46665;51.558;-0.448;2023-04-22T13:13:44;8.30;;;5.60;;
60831;SDS011;46665;51.558;-0.448;2023-04-22T13:16:10;8.07;;;4.70;;
60831;SDS011;46665;51.558;-0.448;2023-04-22T13:18:35;5.93;;;4.85;;
60831;SDS011;46665;51.558;-0.448;2023-04-22T13:21:00;8.18;;;5.82;;
60831;SDS011;46665;51.558;-0.448;2023-04-22T13:23:26;8.63;;;5.60;;
60831;SDS011;46665;51.558;-0.448;2023-04-22T13:25:52;7.50;;;5.30;;
60831;SDS011;46665;51.558;-0.448;2023-04-22T13:28:17;11.73;;;6.22;;
60831;SDS011;46665;51.558;-0.448;2023-04-22T13:30:43;6.82;;;5.05;;
60831;SDS011;46665;51.558;-0.448;2023-04-22T13:33:09;5.93;;;4.63;;
60831;SDS011;46665;51.558;-0.448;2023-04-22T13:35:34;9.23;;;5.47;;
60831;SDS011;46665;51.558;-0.448;2023-04-22T13:38:00;7.63;;;4.82;;
60831;SDS011;46665;51.558;-0.448;2023-04-22T13:40:26;8.55;;;4.85;;
60831;SDS011;46665;51.558;-0.448;2023-04-22T13:42:53;6.93;;;4.75;;
60831;SDS011;46665;51.558;-0.448;2023-04-22T13:45:18;5.03;;;4.15;;
60831;SDS011;46665;51.558;-0.448;2023-04-22T13:47:44;6.00;;;3.88;;
60831;SDS011;46665;51.558;-0.448;2023-04-22T13:50:09;5.45;;;4.05;;
60831;SDS011;46665;51.558;-0.448;2023-04-22T13:52:35;4.82;;;4.22;;
60831;SDS011;46665;51.558;-0.448;2023-04-22T13:55:04;5.38;;;3.92;;
60831;SDS011;46665;51.558;-0.448;2023-04-22T13:57:30;8.43;;;4.57;;
60831;SDS011;46665;51.558;-0.448;2023-04-22T13:59:55;8.52;;;4.22;;
60831;SDS011;46665;51.558;-0.448;2023-04-22T14:02:21;6.78;;;3.78;;
60831;SDS011;46665;51.558;-0.448;2023-04-22T14:04:46;4.88;;;3.80;;
60831;SDS011;46665;51.558;-0.448;2023-04-22T14:07:11;5.53;;;3.83;;
60831;SDS011;46665;51.558;-0.448;2023-04-22T14:09:37;4.20;;;3.30;;
60831;SDS011;46665;51.558;-0.448;2023-04-22T14:12:03;4.43;;;3.67;;
60831;SDS011;46665;51.558;-0.448;2023-04-22T14:14:32;5.93;;;3.33;;
60831;SDS011;46665;51.558;-0.448;2023-04-22T14:16:58;4.90;;;3.00;;
60831;SDS011;46665;51.558;-0.448;2023-04-22T14:19:23;5.07;;;2.90;;
60831;SDS011;46665;51.558;-0.448;2023-04-22T14:21:50;7.05;;;4.03;;
60831;SDS011;46665;51.558;-0.448;2023-04-22T14:24:15;6.05;;;3.53;;
60831;SDS011;46665;51.558;-0.448;2023-04-22T14:26:41;3.90;;;3.00;;
60831;SDS011;46665;51.558;-0.448;2023-04-22T14:29:06;3.92;;;3.47;;
60831;SDS011;46665;51.558;-0.448;2023-04-22T14:31:32;4.68;;;3.22;;
60831;SDS011;46665;51.558;-0.448;2023-04-22T14:33:57;5.15;;;3.10;;